Time;durP1;ratioP1;P1;durP2;ratioP2;P2;SDS_P1;SDS_P2;PMS_P1;PMS_P2;Temp;Humidity;BMP_temperature;BMP_pressure;BME280_temperature;BME280_humidity;BME280_pressure;Samples;Min_cycle;Max_cycle;Signal;HPM_P1;HPM_P2
2024/02/04 00:01:18;;;;;;;8.50;2.50;;;;;;;7.32;98.12;100076.55;105532;1257;102731;-78
2024/02/04 00:04:03;;;;;;;9.50;3.20;;;;;;;7.30;98.33;100074.23;105532;1258;100072;-78
2024/02/04 00:06:49;;;;;;;10.10;3.80;;;;;;;7.30;98.56;100071.81;105746;1254;97980;-78
2024/02/04 00:09:35;;;;;;;13.00;3.70;;;;;;;7.28;98.90;100065.11;105606;1259;97956;-78
2024/02/04 00:12:21;;;;;;;10.20;2.70;;;;;;;7.26;99.06;100061.11;105610;1259;99667;-78
2024/02/04 00:15:07;;;;;;;14.10;3.90;;;;;;;7.25;99.24;100054.63;105648;1258;102692;-79
2024/02/04 00:17:53;;;;;;;12.80;3.60;;;;;;;7.24;99.20;100054.88;105589;1257;100445;-79
2024/02/04 00:20:39;;;;;;;11.20;4.10;;;;;;;7.22;99.48;100049.58;105602;1258;97955;-79
2024/02/04 00:23:24;;;;;;;12.90;5.20;;;;;;;7.21;99.66;100048.66;106062;1260;97951;-77
2024/02/04 00:26:10;;;;;;;19.80;9.10;;;;;;;7.21;99.71;100048.89;105672;1259;98463;-80
2024/02/04 00:28:55;;;;;;;14.40;4.00;;;;;;;7.20;99.73;100044.21;105562;1257;102037;-80
2024/02/04 00:31:41;;;;;;;13.40;5.10;;;;;;;7.17;99.87;100040.61;105378;1260;99167;-79
2024/02/04 00:34:26;;;;;;;10.40;3.40;;;;;;;7.14;99.92;100042.03;105709;1254;98553;-79
2024/02/04 00:37:11;;;;;;;7.90;3.00;;;;;;;7.12;100.00;100046.27;106026;1254;97976;-80
2024/02/04 00:39:58;;;;;;;12.20;3.70;;;;;;;7.10;100.00;100050.95;105766;1259;97887;-79
2024/02/04 00:42:43;;;;;;;6.90;2.90;;;;;;;7.06;100.00;100054.21;105624;1254;102568;-78
2024/02/04 00:45:29;;;;;;;9.00;2.70;;;;;;;7.02;100.00;100058.35;105791;1261;100433;-79
2024/02/04 00:48:15;;;;;;;10.40;3.20;;;;;;;6.99;100.00;100060.71;105624;1256;97980;-77
2024/02/04 00:51:00;;;;;;;8.80;2.80;;;;;;;6.95;100.00;100058.69;105656;1259;97977;-79
2024/02/04 00:53:46;;;;;;;10.60;2.70;;;;;;;6.92;100.00;100059.36;105939;1254;98030;-79
2024/02/04 00:56:32;;;;;;;12.20;3.40;;;;;;;6.89;100.00;100057.42;105840;1255;101225;-79
2024/02/04 00:59:17;;;;;;;10.00;2.80;;;;;;;6.88;100.00;100061.98;105671;1259;99150;-77
2024/02/04 01:02:03;;;;;;;5.50;2.70;;;;;;;6.87;100.00;100055.16;105624;1258;99180;-77
2024/02/04 01:04:50;;;;;;;5.20;2.60;;;;;;;6.86;100.00;100057.23;105487;1254;182341;-79
2024/02/04 01:07:36;;;;;;;9.70;3.40;;;;;;;6.84;100.00;100056.55;105553;1259;98017;-79
2024/02/04 01:10:21;;;;;;;7.20;2.80;;;;;;;6.82;100.00;100058.52;105612;1258;101406;-77
2024/02/04 01:13:06;;;;;;;6.20;2.50;;;;;;;6.81;100.00;100058.98;105550;1254;99160;-79
2024/02/04 01:15:52;;;;;;;9.00;3.30;;;;;;;6.81;100.00;100057.67;105583;1254;99508;-79
2024/02/04 01:18:37;;;;;;;10.80;3.40;;;;;;;6.79;100.00;100061.45;105574;1255;97857;-78
2024/02/04 01:21:25;;;;;;;10.00;3.00;;;;;;;6.78;100.00;100057.74;105525;1259;98472;-78
2024/02/04 01:24:11;;;;;;;6.70;2.70;;;;;;;6.79;100.00;100049.16;105775;1259;101412;-78
2024/02/04 01:26:56;;;;;;;8.50;3.30;;;;;;;6.79;100.00;100049.49;105716;1259;100836;-78
2024/02/04 01:29:42;;;;;;;13.00;3.20;;;;;;;6.80;100.00;100051.86;105596;1259;97922;-77
2024/02/04 01:32:27;;;;;;;6.60;3.10;;;;;;;6.81;100.00;100050.89;105545;1254;98043;-78
2024/02/04 01:35:15;;;;;;;5.90;2.40;;;;;;;6.82;100.00;100049.70;105438;1259;98401;-77
2024/02/04 01:38:00;;;;;;;8.80;3.60;;;;;;;6.83;100.00;100038.60;105706;1254;101447;-77
2024/02/04 01:40:51;;;;;;;13.10;4.70;;;;;;;6.83;100.00;100029.13;105688;1258;99119;-78
2024/02/04 01:43:36;;;;;;;7.60;3.50;;;;;;;6.84;100.00;100025.34;105538;1254;97852;-78
2024/02/04 01:46:22;;;;;;;15.50;3.70;;;;;;;6.85;100.00;100017.27;105585;1257;98047;-77
2024/02/04 01:49:08;;;;;;;10.10;5.00;;;;;;;6.85;100.00;100013.52;105648;1261;97967;-78
2024/02/04 01:51:56;;;;;;;14.10;6.10;;;;;;;6.86;100.00;100012.92;105523;1259;101995;-79
2024/02/04 01:54:43;;;;;;;15.80;4.20;;;;;;;6.86;100.00;100019.06;105601;1254;99231;-79
2024/02/04 01:57:29;;;;;;;11.30;3.10;;;;;;;6.88;100.00;100030.73;105502;1259;98776;-79
2024/02/04 02:00:15;;;;;;;10.10;3.00;;;;;;;6.89;100.00;100031.83;105532;1259;98082;-78
2024/02/04 02:03:01;;;;;;;14.00;3.00;;;;;;;6.90;100.00;100032.45;105507;1254;98633;-77
2024/02/04 02:05:49;;;;;;;9.20;2.80;;;;;;;6.91;100.00;100027.55;105542;1254;101427;-79
2024/02/04 02:08:35;;;;;;;9.20;4.00;;;;;;;6.92;100.00;100021.39;105295;1259;99973;-78
2024/02/04 02:11:33;;;;;;;11.70;3.00;;;;;;;6.92;100.00;100026.38;105270;1261;97971;-78
2024/02/04 02:14:24;;;;;;;9.80;2.70;;;;;;;6.92;100.00;100021.20;105444;1257;97966;-78
2024/02/04 02:17:17;;;;;;;10.90;2.80;;;;;;;6.93;100.00;100019.69;105372;1254;98475;-77
2024/02/04 02:20:15;;;;;;;10.40;3.00;;;;;;;6.93;100.00;100010.77;105216;1262;102482;-80
2024/02/04 02:23:07;;;;;;;8.90;2.60;;;;;;;6.93;100.00;100013.95;105705;1254;100349;-81
2024/02/04 02:25:55;;;;;;;9.70;2.50;;;;;;;6.93;100.00;100007.41;105609;1255;98862;-79
2024/02/04 02:28:40;;;;;;;5.10;1.90;;;;;;;6.93;100.00;100007.06;105651;1258;99231;-79
2024/02/04 02:31:26;;;;;;;8.60;2.50;;;;;;;6.93;100.00;100006.37;105886;1258;97964;-79
2024/02/04 02:34:12;;;;;;;9.60;2.70;;;;;;;6.93;100.00;100003.55;105816;1255;101387;-77
2024/02/04 02:37:32;;;;;;;8.10;2.70;;;;;;;6.93;100.00;100008.14;105832;1259;99973;-80
2024/02/04 02:40:50;;;;;;;9.10;2.60;;;;;;;6.93;100.00;100014.20;105493;1258;98564;-78
2024/02/04 02:43:40;;;;;;;10.50;2.60;;;;;;;6.93;100.00;100020.70;105626;1258;98047;-79
2024/02/04 02:46:27;;;;;;;10.60;3.10;;;;;;;6.94;100.00;100013.86;105678;1255;98062;-79
2024/02/04 02:49:14;;;;;;;9.50;3.10;;;;;;;6.95;100.00;100016.40;105638;1254;102679;-80
2024/02/04 02:51:59;;;;;;;14.80;3.10;;;;;;;6.96;100.00;100016.79;105588;1259;99251;-77
2024/02/04 02:54:45;;;;;;;12.40;2.90;;;;;;;6.96;100.00;100020.00;105498;1257;97975;-78
2024/02/04 02:57:31;;;;;;;8.50;2.10;;;;;;;6.96;100.00;100023.77;105452;1254;98053;-77
2024/02/04 03:00:17;;;;;;;7.60;2.40;;;;;;;6.95;100.00;100017.80;105511;1259;98457;-79
2024/02/04 03:03:03;;;;;;;11.60;2.30;;;;;;;6.95;100.00;100021.93;105491;1258;102347;-77
2024/02/04 03:05:49;;;;;;;9.10;2.60;;;;;;;6.94;99.89;100020.84;105481;1259;99042;-78
2024/02/04 03:08:35;;;;;;;7.10;2.00;;;;;;;6.93;99.74;100026.48;105444;1254;98561;-78
2024/02/04 03:11:21;;;;;;;9.40;3.00;;;;;;;6.92;99.41;100030.41;105537;1259;98075;-77
2024/02/04 03:14:06;;;;;;;16.70;4.60;;;;;;;6.92;99.18;100028.14;105594;1257;98481;-79
2024/02/04 03:16:52;;;;;;;10.60;3.20;;;;;;;6.92;98.92;100025.31;105714;1255;102526;-79
2024/02/04 03:19:37;;;;;;;11.10;3.60;;;;;;;6.92;98.75;100031.17;105561;1259;100331;-79
2024/02/04 03:22:23;;;;;;;20.60;5.10;;;;;;;6.91;98.69;100034.20;105510;1254;98091;-78
2024/02/04 03:25:08;;;;;;;12.50;3.50;;;;;;;6.91;98.57;100039.06;105819;1260;98053;-80
2024/02/04 03:27:55;;;;;;;12.20;2.80;;;;;;;6.91;98.54;100040.14;106022;1255;98481;-79
2024/02/04 03:30:40;;;;;;;12.60;2.50;;;;;;;6.89;98.32;100034.82;106051;1258;102204;-79
2024/02/04 03:33:26;;;;;;;9.10;2.20;;;;;;;6.87;98.16;100029.91;105895;1255;101287;-79
2024/02/04 03:36:12;;;;;;;7.60;2.10;;;;;;;6.86;97.88;100032.38;105934;1257;98261;-77
2024/02/04 03:38:57;;;;;;;10.90;2.90;;;;;;;6.84;97.60;100019.52;105565;1257;98322;-79
2024/02/04 03:41:43;;;;;;;10.00;2.60;;;;;;;6.82;97.74;100025.35;105410;1259;97752;-78
2024/02/04 03:44:29;;;;;;;8.20;2.00;;;;;;;6.80;97.65;100031.61;105520;1257;101320;-79
2024/02/04 03:47:15;;;;;;;13.50;2.20;;;;;;;6.79;97.48;100040.84;105592;1257;99162;-79
2024/02/04 03:50:01;;;;;;;11.30;2.40;;;;;;;6.78;97.33;100043.28;105993;1257;98594;-78
2024/02/04 03:52:46;;;;;;;10.10;2.90;;;;;;;6.75;96.55;100041.47;105890;1256;99047;-78
2024/02/04 03:55:32;;;;;;;13.80;2.60;;;;;;;6.72;96.83;100033.27;105953;1254;98500;-79
2024/02/04 03:58:20;;;;;;;14.20;3.00;;;;;;;6.71;97.16;100031.42;105973;1258;102636;-78
2024/02/04 04:01:05;;;;;;;9.80;2.10;;;;;;;6.71;97.09;100034.15;105627;1257;99739;-77
2024/02/04 04:03:50;;;;;;;9.60;2.00;;;;;;;6.72;97.20;100044.19;105545;1259;99079;-79
2024/02/04 04:06:36;;;;;;;10.80;2.40;;;;;;;6.71;97.02;100057.16;105503;1259;99247;-77
2024/02/04 04:09:22;;;;;;;8.40;2.20;;;;;;;6.67;96.68;100057.72;105619;1258;97957;-78
2024/02/04 04:12:07;;;;;;;6.40;1.80;;;;;;;6.61;96.38;100055.16;105558;1257;102116;-79
2024/02/04 04:14:53;;;;;;;9.40;2.60;;;;;;;6.57;96.44;100061.66;105794;1257;99056;-79
2024/02/04 04:17:38;;;;;;;8.00;2.30;;;;;;;6.50;96.09;100067.58;105624;1259;98053;-79
2024/02/04 04:20:24;;;;;;;12.90;2.00;;;;;;;6.41;95.77;100066.92;105589;1259;97952;-80
2024/02/04 04:23:10;;;;;;;7.50;2.00;;;;;;;6.34;96.01;100072.88;105591;1259;98510;-81
2024/02/04 04:25:55;;;;;;;9.50;1.80;;;;;;;6.29;96.16;100070.70;105286;1275;103091;-79
2024/02/04 04:28:41;;;;;;;8.00;2.00;;;;;;;6.25;95.90;100066.19;105684;1257;100437;-77
2024/02/04 04:31:27;;;;;;;7.60;2.30;;;;;;;6.22;96.17;100063.84;105861;1255;97979;-80
2024/02/04 04:34:12;;;;;;;11.30;3.30;;;;;;;6.23;96.11;100071.09;105521;1257;97963;-77
2024/02/04 04:36:57;;;;;;;9.50;2.40;;;;;;;6.24;96.24;100070.02;105556;1259;98504;-78
2024/02/04 04:39:43;;;;;;;11.50;3.30;;;;;;;6.24;96.11;100069.12;105517;1257;101407;-78
2024/02/04 04:42:29;;;;;;;13.60;3.40;;;;;;;6.24;96.02;100074.67;105829;1257;99111;-79
2024/02/04 04:45:15;;;;;;;10.30;3.40;;;;;;;6.23;95.80;100075.77;105862;1254;99062;-79
2024/02/04 04:48:00;;;;;;;8.10;2.60;;;;;;;6.23;95.87;100068.48;105732;1254;98053;-78
2024/02/04 04:50:46;;;;;;;4.80;2.10;;;;;;;6.23;95.56;100074.81;105646;1254;98569;-78
2024/02/04 04:53:31;;;;;;;9.80;2.00;;;;;;;6.19;95.26;100080.67;105617;1259;101329;-77
2024/02/04 04:56:17;;;;;;;10.40;3.20;;;;;;;6.16;95.07;100090.05;105601;1255;100450;-76
2024/02/04 04:59:02;;;;;;;5.60;1.90;;;;;;;6.14;95.12;100099.14;105884;1254;98973;-79
2024/02/04 05:01:48;;;;;;;8.30;1.90;;;;;;;6.11;95.43;100092.09;105861;1257;97978;-78
2024/02/04 05:04:34;;;;;;;10.30;2.20;;;;;;;6.08;95.83;100099.81;105502;1258;97866;-77
2024/02/04 05:07:21;;;;;;;6.10;1.90;;;;;;;6.05;95.92;100100.16;105483;1256;101361;-79
2024/02/04 05:10:07;;;;;;;8.60;1.70;;;;;;;5.99;96.07;100102.59;105534;1260;99086;-77
2024/02/04 05:12:52;;;;;;;5.90;1.60;;;;;;;5.95;96.05;100101.67;105698;1257;98841;-78
2024/02/04 05:15:38;;;;;;;7.80;1.90;;;;;;;5.92;96.22;100098.59;105643;1259;97990;-81
2024/02/04 05:18:26;;;;;;;9.50;2.10;;;;;;;5.89;96.18;100096.64;105727;1258;98565;-77
2024/02/04 05:21:12;;;;;;;7.80;2.50;;;;;;;5.87;96.22;100098.86;105807;1257;101434;-78
2024/02/04 05:23:58;;;;;;;10.20;3.10;;;;;;;5.84;96.20;100092.81;105896;1259;99104;-78
2024/02/04 05:26:43;;;;;;;9.10;2.10;;;;;;;5.81;96.44;100100.55;105601;1255;98942;-79
2024/02/04 05:29:31;;;;;;;13.80;2.20;;;;;;;5.79;96.47;100101.30;105571;1257;98563;-78
2024/02/04 05:32:16;;;;;;;5.00;1.90;;;;;;;5.78;96.49;100094.36;105558;1259;99212;-78
2024/02/04 05:35:01;;;;;;;12.10;2.20;;;;;;;5.76;96.60;100092.60;105753;1259;101951;-79
2024/02/04 05:37:47;;;;;;;7.60;2.30;;;;;;;5.73;96.62;100100.34;105542;1259;99812;-79
2024/02/04 05:40:33;;;;;;;6.50;3.00;;;;;;;5.71;96.91;100097.29;105597;1254;99040;-78
2024/02/04 05:43:18;;;;;;;9.50;2.70;;;;;;;5.70;96.95;100095.42;106356;1256;97961;-79
2024/02/04 05:46:04;;;;;;;11.70;2.50;;;;;;;5.68;97.07;100094.56;106072;1255;98409;-79
2024/02/04 05:48:49;;;;;;;8.70;2.70;;;;;;;5.68;97.08;100094.44;105728;1259;102670;-79
2024/02/04 05:51:40;;;;;;;8.30;3.10;;;;;;;5.67;97.09;100097.52;105970;1259;99248;-79
2024/02/04 05:54:26;;;;;;;12.80;2.50;;;;;;;5.68;96.96;100094.27;105837;1255;99133;-79
2024/02/04 05:57:11;;;;;;;12.10;2.60;;;;;;;5.69;96.90;100088.14;105643;1257;97957;-78
2024/02/04 05:59:59;;;;;;;10.50;3.20;;;;;;;5.69;96.76;100085.25;105568;1254;97958;-78
2024/02/04 06:02:44;;;;;;;11.10;3.40;;;;;;;5.69;96.68;100083.11;105484;1260;102629;-77
2024/02/04 06:05:30;;;;;;;16.90;5.80;;;;;;;5.70;96.86;100083.42;105388;1257;98988;-79
2024/02/04 06:08:15;;;;;;;15.50;4.20;;;;;;;5.71;97.00;100083.27;105419;1259;98491;-79
2024/02/04 06:11:01;;;;;;;11.10;3.10;;;;;;;5.71;96.94;100078.63;105710;1254;98046;-79
2024/02/04 06:13:46;;;;;;;17.20;3.20;;;;;;;5.70;96.90;100073.51;105766;1259;96322;-79
2024/02/04 06:16:34;;;;;;;11.40;3.40;;;;;;;5.67;97.21;100074.64;105578;1258;102517;-78
2024/02/04 06:19:19;;;;;;;12.20;2.50;;;;;;;5.67;97.38;100075.77;105662;1259;99124;-79
2024/02/04 06:22:05;;;;;;;9.00;2.40;;;;;;;5.66;97.53;100078.89;105541;1259;99120;-78
2024/02/04 06:24:50;;;;;;;16.80;4.00;;;;;;;5.64;97.61;100083.21;105793;1260;98036;-77
2024/02/04 06:27:36;;;;;;;12.40;2.70;;;;;;;5.61;97.66;100089.16;105736;1257;98404;-79
2024/02/04 06:30:22;;;;;;;12.10;2.70;;;;;;;5.59;97.75;100087.27;105759;1259;101379;-76
2024/02/04 06:33:07;;;;;;;11.80;2.70;;;;;;;5.57;97.93;100087.27;105640;1259;99694;-78
2024/02/04 06:35:53;;;;;;;16.40;3.80;;;;;;;5.56;97.90;100085.94;105651;1262;99029;-78
2024/02/04 06:38:38;;;;;;;13.40;2.70;;;;;;;5.55;97.91;100088.39;105560;1257;97966;-79
2024/02/04 06:41:24;;;;;;;14.40;2.80;;;;;;;5.54;98.13;100086.88;105587;1254;99141;-78
2024/02/04 06:44:11;;;;;;;13.50;3.40;;;;;;;5.54;98.10;100091.48;105642;1267;102203;-79
2024/02/04 06:46:56;;;;;;;9.50;3.50;;;;;;;5.52;98.07;100091.00;105545;1259;100784;-77
2024/02/04 06:49:45;;;;;;;9.30;2.80;;;;;;;5.51;98.19;100093.65;105628;1259;98200;-78
2024/02/04 06:52:31;;;;;;;13.90;2.90;;;;;;;5.50;98.26;100094.22;105548;1259;97942;-77
2024/02/04 06:55:17;;;;;;;7.70;2.10;;;;;;;5.51;98.36;100097.67;105688;1257;98408;-76
2024/02/04 06:58:02;;;;;;;8.30;2.60;;;;;;;5.52;98.26;100097.48;105622;1257;101373;-76
2024/02/04 07:00:48;;;;;;;10.80;3.90;;;;;;;5.51;98.16;100094.31;105576;1267;99071;-79
2024/02/04 07:03:34;;;;;;;14.10;2.60;;;;;;;5.52;98.13;100096.14;105622;1259;98249;-78
2024/02/04 07:06:20;;;;;;;14.80;3.30;;;;;;;5.53;97.95;100096.63;105540;1257;98021;-79
2024/02/04 07:09:05;;;;;;;8.00;2.50;;;;;;;5.52;97.92;100092.65;105626;1257;98399;-78
2024/02/04 07:11:50;;;;;;;12.90;4.60;;;;;;;5.50;98.06;100088.61;105559;1257;102112;-78
2024/02/04 07:14:36;;;;;;;12.50;3.60;;;;;;;5.48;98.11;100088.43;105670;1259;100395;-77
2024/02/04 07:17:22;;;;;;;17.50;6.30;;;;;;;5.46;98.21;100085.79;105598;1257;97956;-77
2024/02/04 07:20:08;;;;;;;29.10;11.50;;;;;;;5.46;98.27;100082.83;105566;1257;97947;-77
2024/02/04 07:22:53;;;;;;;22.10;12.40;;;;;;;5.46;98.31;100075.38;105873;1259;98526;-78
2024/02/04 07:25:39;;;;;;;40.00;19.80;;;;;;;5.45;98.29;100073.50;105723;1259;101377;-78
2024/02/04 07:28:24;;;;;;;31.90;14.10;;;;;;;5.43;98.29;100077.61;105698;1254;99106;-80
2024/02/04 07:31:10;;;;;;;28.60;15.10;;;;;;;5.44;98.58;100078.75;105825;1254;98694;-78
2024/02/04 07:33:56;;;;;;;27.90;12.00;;;;;;;5.46;98.52;100077.52;105814;1259;98446;-76
2024/02/04 07:36:41;;;;;;;15.00;6.30;;;;;;;5.46;98.73;100079.64;106134;1257;97781;-79
2024/02/04 07:39:27;;;;;;;14.80;6.60;;;;;;;5.46;98.92;100088.08;105824;1257;110856;-78
2024/02/04 07:42:13;;;;;;;14.90;5.00;;;;;;;5.49;99.15;100094.50;105905;1255;99079;-79
2024/02/04 07:44:58;;;;;;;14.40;6.50;;;;;;;5.52;99.27;100096.14;105811;1255;99091;-79
2024/02/04 07:47:44;;;;;;;16.10;7.50;;;;;;;5.54;99.48;100096.27;105580;1261;97871;-77
2024/02/04 07:50:29;;;;;;;23.10;7.20;;;;;;;5.54;99.35;100096.86;105739;1258;97868;-77
2024/02/04 07:53:15;;;;;;;16.40;7.60;;;;;;;5.54;99.47;100092.98;105552;1257;101325;-77
2024/02/04 07:56:02;;;;;;;22.80;8.70;;;;;;;5.55;99.47;100087.91;105489;1258;100391;-79
2024/02/04 07:58:48;;;;;;;12.50;5.50;;;;;;;5.55;99.21;100089.83;105559;1257;97957;-77
2024/02/04 08:01:33;;;;;;;27.30;8.30;;;;;;;5.56;99.44;100094.47;105642;1259;98072;-78
2024/02/04 08:04:19;;;;;;;29.70;13.50;;;;;;;5.60;99.41;100086.14;105988;1256;96649;-82
2024/02/04 08:07:04;;;;;;;25.60;12.90;;;;;;;5.60;99.16;100083.42;106420;1255;101410;-77
2024/02/04 08:09:52;;;;;;;17.80;5.30;;;;;;;5.60;99.07;100080.77;105854;1259;99070;-82
2024/02/04 08:12:37;;;;;;;15.60;5.00;;;;;;;5.61;98.89;100077.33;107105;1257;97879;-83
2024/02/04 08:15:23;;;;;;;8.60;3.80;;;;;;;5.62;98.76;100072.43;106420;1259;98068;-84
2024/02/04 08:18:08;;;;;;;13.70;4.60;;;;;;;5.63;98.41;100068.37;106462;1257;98013;-83
2024/02/04 08:20:54;;;;;;;8.70;3.40;;;;;;;5.64;98.21;100073.81;106523;1259;101507;-83
2024/02/04 08:23:39;;;;;;;12.20;4.50;;;;;;;5.64;97.94;100076.77;106401;1259;99150;-84
2024/02/04 08:26:25;;;;;;;13.70;3.20;;;;;;;5.65;97.88;100075.80;106294;1259;98999;-83
2024/02/04 08:29:11;;;;;;;8.70;3.20;;;;;;;5.66;97.88;100075.17;106111;1257;98717;-83
2024/02/04 08:31:57;;;;;;;16.70;3.50;;;;;;;5.66;97.67;100079.32;106196;1262;97984;-84
2024/02/04 08:34:43;;;;;;;17.00;3.40;;;;;;;5.67;97.47;100085.66;106456;1260;101400;-82
2024/02/04 08:37:29;;;;;;;10.50;3.70;;;;;;;5.68;97.64;100087.46;106355;1254;99347;-83
2024/02/04 08:40:15;;;;;;;9.30;3.00;;;;;;;5.70;97.92;100087.19;106236;1260;98082;-80
2024/02/04 08:43:01;;;;;;;13.60;4.00;;;;;;;5.73;97.60;100085.73;106286;1255;96148;-80
2024/02/04 08:45:47;;;;;;;15.50;3.90;;;;;;;5.72;97.20;100080.64;106339;1259;98504;-83
2024/02/04 08:48:33;;;;;;;13.10;5.50;;;;;;;5.72;97.23;100075.53;106153;1257;101327;-84
2024/02/04 08:51:19;;;;;;;18.80;5.30;;;;;;;5.73;97.24;100084.14;106187;1260;99148;-81
2024/02/04 08:54:05;;;;;;;17.40;5.10;;;;;;;5.73;97.32;100091.55;106381;1260;97862;-82
2024/02/04 08:56:50;;;;;;;15.90;4.20;;;;;;;5.74;97.34;100088.95;106381;1267;97940;-86
2024/02/04 08:59:36;;;;;;;15.50;4.90;;;;;;;5.76;97.15;100087.85;106372;1262;97848;-79
2024/02/04 09:02:21;;;;;;;19.80;7.00;;;;;;;5.77;96.91;100089.52;105754;1260;101380;-83
2024/02/04 09:05:07;;;;;;;18.30;6.50;;;;;;;5.78;96.89;100093.97;106410;1259;99142;-84
2024/02/04 09:07:55;;;;;;;21.40;5.50;;;;;;;5.80;96.80;100094.63;106823;1254;99137;-80
2024/02/04 09:10:41;;;;;;;16.10;7.50;;;;;;;5.83;97.15;100087.55;106565;1260;98152;-80
2024/02/04 09:13:26;;;;;;;13.70;5.60;;;;;;;5.86;96.74;100090.12;106784;1254;98512;-79
2024/02/04 09:16:13;;;;;;;19.40;4.80;;;;;;;5.88;96.64;100096.79;106884;1254;102634;-85
2024/02/04 09:18:58;;;;;;;15.40;4.70;;;;;;;5.89;96.71;100095.95;106820;1260;100591;-80
2024/02/04 09:21:44;;;;;;;16.10;4.60;;;;;;;5.94;96.77;100098.58;106818;1259;99070;-80
2024/02/04 09:24:29;;;;;;;12.30;3.70;;;;;;;5.98;96.60;100095.36;106337;1260;98054;-83
2024/02/04 09:27:15;;;;;;;16.20;4.40;;;;;;;6.02;96.61;100094.27;106632;1261;97876;-80
2024/02/04 09:30:01;;;;;;;12.50;3.70;;;;;;;6.05;96.35;100095.23;107011;1260;102624;-80
2024/02/04 09:32:47;;;;;;;13.60;3.60;;;;;;;6.07;96.18;100098.58;107236;1254;99153;-80
2024/02/04 09:35:32;;;;;;;17.60;4.10;;;;;;;6.09;96.35;100096.55;107290;1260;97744;-81
2024/02/04 09:38:17;;;;;;;19.30;4.80;;;;;;;6.10;96.04;100092.30;107062;1259;98396;-81
2024/02/04 09:41:04;;;;;;;20.00;8.80;;;;;;;6.13;96.35;100092.19;107094;1254;97807;-81
2024/02/04 09:43:50;;;;;;;16.80;4.90;;;;;;;6.17;96.11;100086.19;106806;1258;102599;-79
2024/02/04 09:46:35;;;;;;;22.60;6.60;;;;;;;6.20;95.82;100085.42;106403;1254;99608;-79
2024/02/04 09:49:22;;;;;;;17.50;5.00;;;;;;;6.21;95.82;100083.64;106321;1255;98965;-79
2024/02/04 09:52:08;;;;;;;12.50;4.20;;;;;;;6.22;95.66;100079.46;106887;1254;97950;-80
2024/02/04 09:55:00;;;;;;;20.10;5.30;;;;;;;6.24;95.91;100077.09;106255;1257;98318;-80
2024/02/04 09:57:45;;;;;;;11.30;4.30;;;;;;;6.27;95.87;100078.45;106247;1255;101465;-80
2024/02/04 10:00:33;;;;;;;18.70;5.00;;;;;;;6.26;95.63;100075.65;106323;1257;99152;-80
2024/02/04 10:03:18;;;;;;;15.40;4.70;;;;;;;6.26;95.70;100072.89;106297;1254;98084;-78
2024/02/04 10:06:04;;;;;;;15.70;5.80;;;;;;;6.26;95.48;100068.11;106296;1260;97960;-80
2024/02/04 10:08:51;;;;;;;15.00;5.30;;;;;;;6.26;95.68;100066.33;106117;1260;98399;-87
2024/02/04 10:11:37;;;;;;;19.40;8.70;;;;;;;6.27;95.81;100061.70;106247;1260;102562;-78
2024/02/04 10:14:23;;;;;;;19.00;5.70;;;;;;;6.29;95.75;100058.00;105522;1254;99068;-78
2024/02/04 10:17:09;;;;;;;12.60;5.10;;;;;;;6.30;95.71;100054.17;105489;1268;98754;-78
2024/02/04 10:19:55;;;;;;;14.10;5.80;;;;;;;6.29;95.76;100053.58;105617;1260;99215;-77
2024/02/04 10:22:41;;;;;;;23.20;7.80;;;;;;;6.27;95.81;100053.45;105549;1267;97988;-77
2024/02/04 10:25:27;;;;;;;15.30;5.30;;;;;;;6.26;96.04;100045.54;105673;1260;101608;-77
2024/02/04 10:28:12;;;;;;;19.30;6.80;;;;;;;6.25;96.15;100036.05;105521;1260;99075;-77
2024/02/04 10:30:58;;;;;;;20.70;9.30;;;;;;;6.24;96.37;100025.71;105552;1260;98034;-78
2024/02/04 10:33:43;;;;;;;26.60;11.00;;;;;;;6.24;96.37;100014.70;105587;1263;97951;-77
2024/02/04 10:36:30;;;;;;;32.00;16.80;;;;;;;6.26;96.40;100008.70;105341;1260;98481;-76
2024/02/04 10:39:16;;;;;;;48.70;17.20;;;;;;;6.24;96.64;100004.80;105514;1260;102599;-77
2024/02/04 10:42:05;;;;;;;18.70;7.20;;;;;;;6.25;96.75;99999.41;105479;1254;99084;-76
2024/02/04 10:44:53;;;;;;;23.80;6.20;;;;;;;6.24;96.85;99988.80;105312;1254;99031;-78
2024/02/04 10:47:39;;;;;;;14.60;4.80;;;;;;;6.27;97.17;99975.59;105539;1254;97922;-77
2024/02/04 10:50:26;;;;;;;12.40;4.40;;;;;;;6.28;97.03;99963.22;105609;1260;98498;-77
2024/02/04 10:53:14;;;;;;;22.20;6.50;;;;;;;6.27;96.94;99963.13;105533;1254;101435;-77
2024/02/04 10:56:03;;;;;;;13.90;6.20;;;;;;;6.27;97.14;99955.87;105514;1260;99107;-77
2024/02/04 10:58:49;;;;;;;14.50;5.70;;;;;;;6.28;97.41;99959.19;105477;1254;99155;-76
2024/02/04 11:01:36;;;;;;;16.00;6.10;;;;;;;6.27;97.44;99954.48;105627;1259;98052;-76
2024/02/04 11:04:22;;;;;;;11.10;4.90;;;;;;;6.27;97.74;99949.37;105525;1255;98498;-78
2024/02/04 11:07:10;;;;;;;16.90;4.20;;;;;;;6.28;97.83;99947.14;105640;1263;102144;-77
2024/02/04 11:09:57;;;;;;;16.70;5.90;;;;;;;6.29;97.87;99946.60;105427;1264;99108;-78
2024/02/04 11:12:44;;;;;;;14.20;5.20;;;;;;;6.29;97.83;99946.83;105442;1260;99067;-76
2024/02/04 11:15:36;;;;;;;21.00;7.10;;;;;;;6.29;98.18;99949.25;105536;1259;97865;-78
2024/02/04 11:18:46;;;;;;;22.90;6.30;;;;;;;6.30;98.43;99947.05;105787;1258;97846;-78
2024/02/04 11:22:12;;;;;;;16.40;4.70;;;;;;;6.31;98.87;99932.42;105486;1254;101375;-78
2024/02/04 11:25:04;;;;;;;16.40;5.50;;;;;;;6.29;99.01;99927.08;105526;1260;100380;-78
2024/02/04 11:27:50;;;;;;;12.70;4.80;;;;;;;6.30;99.16;99924.05;105473;1260;97976;-78
2024/02/04 11:30:35;;;;;;;11.30;5.10;;;;;;;6.29;99.44;99916.64;105549;1254;97964;-78
2024/02/04 11:33:22;;;;;;;12.20;5.00;;;;;;;6.30;99.68;99917.30;105648;1258;98553;-77
2024/02/04 11:36:13;;;;;;;14.00;5.10;;;;;;;6.31;99.78;99922.34;105468;1254;102105;-77
2024/02/04 11:38:58;;;;;;;13.90;5.90;;;;;;;6.32;99.88;99914.40;105533;1260;100401;-78
2024/02/04 11:41:46;;;;;;;12.70;5.90;;;;;;;6.35;99.99;99911.70;105691;1254;99132;-78
2024/02/04 11:44:32;;;;;;;23.80;7.10;;;;;;;6.38;100.00;99901.75;105585;1254;98026;-78
2024/02/04 11:47:24;;;;;;;15.50;5.40;;;;;;;6.41;100.00;99892.36;105744;1254;98441;-79
2024/02/04 11:50:10;;;;;;;12.60;4.40;;;;;;;6.42;100.00;99890.29;105409;1260;101349;-77
2024/02/04 11:53:15;;;;;;;19.40;5.00;;;;;;;6.46;100.00;99888.83;105569;1261;100421;-77
2024/02/04 11:56:02;;;;;;;10.70;4.80;;;;;;;6.49;100.00;99886.88;105416;1255;98416;-77
2024/02/04 11:58:48;;;;;;;15.20;4.70;;;;;;;6.52;100.00;99877.90;105445;1260;97973;-77
2024/02/04 12:01:35;;;;;;;20.20;5.30;;;;;;;6.56;100.00;99875.52;105614;1260;98465;-75
2024/02/04 12:04:22;;;;;;;9.50;4.40;;;;;;;6.60;100.00;99880.27;105397;1254;101344;-78
2024/02/04 12:07:08;;;;;;;14.70;4.90;;;;;;;6.61;100.00;99873.70;105512;1254;100532;-77
2024/02/04 12:09:53;;;;;;;15.70;6.20;;;;;;;6.63;100.00;99869.00;105349;1261;99021;-78
2024/02/04 12:12:39;;;;;;;16.30;5.90;;;;;;;6.66;100.00;99862.63;105457;1254;97954;-79
2024/02/04 12:15:25;;;;;;;11.60;5.10;;;;;;;6.70;100.00;99858.23;105573;1260;99272;-78
2024/02/04 12:18:14;;;;;;;10.40;5.40;;;;;;;6.71;99.83;99854.64;105959;1260;101376;-85
2024/02/04 12:21:00;;;;;;;14.60;7.20;;;;;;;6.72;99.87;99848.96;106219;1254;99405;-85
2024/02/04 12:23:46;;;;;;;13.60;7.50;;;;;;;6.74;99.63;99852.14;106122;1255;98065;-86
2024/02/04 12:26:32;;;;;;;21.10;8.10;;;;;;;6.74;99.53;99851.36;106372;1254;97779;-80
2024/02/04 12:29:17;;;;;;;27.80;12.40;;;;;;;6.75;99.32;99845.81;106341;1260;98063;-84
2024/02/04 12:32:04;;;;;;;13.80;6.70;;;;;;;6.76;99.40;99849.02;106242;1254;104144;-83
2024/02/04 12:34:53;;;;;;;16.80;5.90;;;;;;;6.77;98.92;99845.02;106125;1254;99188;-82
2024/02/04 12:37:52;;;;;;;14.20;4.70;;;;;;;6.76;98.90;99845.63;106423;1254;99095;-84
2024/02/04 12:40:38;;;;;;;12.50;4.10;;;;;;;6.75;98.81;99845.98;107270;1259;97993;-83
2024/02/04 12:43:24;;;;;;;10.20;3.60;;;;;;;6.73;98.59;99845.80;106374;1254;98417;-88
2024/02/04 12:46:13;;;;;;;15.40;6.70;;;;;;;6.72;98.57;99842.34;106154;1258;101657;-84